Time;durP1;ratioP1;P1;durP2;ratioP2;P2;SDS_P1;SDS_P2;PMS_P1;PMS_P2;Temp;Humidity;BMP_temperature;BMP_pressure;BME280_temperature;BME280_humidity;BME280_pressure;Samples;Min_cycle;Max_cycle;Signal;HPM_P1;HPM_P2
2022/01/23 00:00:26;;;;;;;2.60;0.30;;;;;;;4.60;53.76;103300.84;5006243;28;20033;-73
2022/01/23 00:02:55;;;;;;;0.60;0.10;;;;;;;4.67;53.61;103302.72;5005529;28;20068;-73
2022/01/23 00:05:21;;;;;;;0.82;0.13;;;;;;;4.67;53.62;103301.88;5004907;28;20108;-72
2022/01/23 00:07:47;;;;;;;4.45;1.05;;;;;;;4.70;53.09;103302.81;5021169;28;20070;-72
2022/01/23 00:10:13;;;;;;;0.60;0.20;;;;;;;4.74;53.15;103309.81;4989171;28;20072;-72
2022/01/23 00:12:47;;;;;;;1.20;0.10;;;;;;;4.51;54.17;103314.44;4989064;28;20045;-73
2022/01/23 00:17:57;;;;;;;2.08;0.30;;;;;;;4.50;54.20;103309.22;5005582;28;20679;-72
2022/01/23 00:20:23;;;;;;;2.15;0.20;;;;;;;4.55;54.09;103299.88;5009093;28;20038;-72
2022/01/23 00:22:57;;;;;;;5.38;0.50;;;;;;;4.50;54.22;103310.13;5005884;28;20053;-72
2022/01/23 00:30:54;;;;;;;0.65;0.20;;;;;;;4.78;53.42;103300.41;5021125;28;20034;-73
2022/01/23 00:33:20;;;;;;;5.47;0.52;;;;;;;4.67;53.43;103287.19;5024607;28;20078;-73
2022/01/23 00:35:47;;;;;;;2.95;0.65;;;;;;;4.63;53.65;103288.84;5008704;28;20062;-71
2022/01/23 00:38:13;;;;;;;5.65;0.20;;;;;;;4.55;53.61;103289.50;5020814;28;20041;-72
2022/01/23 00:40:41;;;;;;;1.85;0.10;;;;;;;4.67;53.44;103287.19;5004266;28;20036;-72
2022/01/23 00:43:16;;;;;;;4.03;0.20;;;;;;;4.71;53.68;103291.59;5022581;28;20042;-71
2022/01/23 00:45:50;;;;;;;4.10;0.13;;;;;;;4.78;53.03;103296.09;5005178;28;20041;-72
2022/01/23 00:48:17;;;;;;;2.42;0.10;;;;;;;4.76;53.41;103302.94;5003823;28;20055;-71
2022/01/23 00:50:45;;;;;;;1.45;0.50;;;;;;;4.83;53.10;103310.03;5007045;28;20032;-73
2022/01/23 00:53:12;;;;;;;2.50;0.20;;;;;;;4.66;53.77;103313.09;5008839;28;20041;-73
2022/01/23 00:55:41;;;;;;;0.82;0.28;;;;;;;4.84;53.19;103314.38;5012485;28;20124;-73
2022/01/23 00:58:07;;;;;;;3.25;0.47;;;;;;;4.59;53.91;103317.25;5009738;28;20041;-73
2022/01/23 01:00:33;;;;;;;0.45;0.20;;;;;;;4.71;53.49;103316.66;5008341;28;20029;-72
2022/01/23 01:02:58;;;;;;;6.70;0.32;;;;;;;4.80;53.34;103325.50;5010530;28;20054;-72
2022/01/23 01:05:27;;;;;;;3.85;0.60;;;;;;;4.81;53.42;103311.72;5025110;28;20765;-72
2022/01/23 01:07:54;;;;;;;3.85;0.30;;;;;;;4.50;54.11;103317.88;4992837;28;20043;-71
2022/01/23 01:10:25;;;;;;;2.28;0.50;;;;;;;4.81;53.35;103314.31;5007468;28;20064;-71
2022/01/23 01:12:59;;;;;;;1.10;0.80;;;;;;;4.82;53.25;103312.59;5008203;28;20041;-72
2022/01/23 01:31:43;;;;;;;4.20;0.80;;;;;;;4.86;53.08;103313.56;5008526;28;20335;-73
2022/01/23 01:34:18;;;;;;;2.97;0.20;;;;;;;4.74;53.24;103303.75;5024745;28;20041;-73
2022/01/23 01:36:49;;;;;;;4.05;0.20;;;;;;;4.75;53.39;103310.69;5007632;28;20122;-73
2022/01/23 01:39:17;;;;;;;4.30;0.10;;;;;;;4.42;54.28;103299.56;5017358;28;20569;-72
2022/01/23 01:41:44;;;;;;;5.07;0.30;;;;;;;4.73;53.34;103313.25;5007386;28;20036;-72
2022/01/23 01:44:11;;;;;;;7.18;0.77;;;;;;;4.74;53.13;103308.94;5023459;28;20030;-72
2022/01/23 01:46:53;;;;;;;3.03;0.38;;;;;;;4.85;52.92;103307.47;5007322;28;20029;-73
2022/01/23 01:49:27;;;;;;;2.08;0.80;;;;;;;4.75;53.31;103315.88;5023140;28;20034;-73
2022/01/23 01:51:56;;;;;;;0.47;0.20;;;;;;;4.75;52.99;103321.06;4997835;28;20061;-74
2022/01/23 01:54:23;;;;;;;2.25;0.35;;;;;;;4.86;53.01;103316.13;5006744;28;20507;-74
2022/01/23 01:57:09;;;;;;;0.57;0.10;;;;;;;4.90;52.39;103317.97;5007265;28;20061;-73
2022/01/23 02:10:50;;;;;;;3.38;0.20;;;;;;;5.08;51.81;103352.09;5022605;28;20037;-72
2022/01/23 02:13:20;;;;;;;3.90;0.10;;;;;;;5.17;51.84;103341.94;5008734;28;20422;-71
2022/01/23 02:56:46;;;;;;;1.40;0.17;;;;;;;4.91;52.25;103343.06;5023776;28;20037;-73
2022/01/23 02:59:25;;;;;;;1.88;0.10;;;;;;;4.89;52.26;103336.97;5013274;28;20049;-73
2022/01/23 03:02:09;;;;;;;0.73;0.10;;;;;;;4.69;52.64;103342.50;5021630;28;20494;-73
2022/01/23 03:04:53;;;;;;;5.60;0.15;;;;;;;4.89;52.45;103334.38;5005422;28;20398;-72
2022/01/23 03:08:01;;;;;;;1.75;0.20;;;;;;;4.87;52.71;103341.19;5018472;28;20064;-72
2022/01/23 03:10:31;;;;;;;1.50;1.00;;;;;;;5.05;52.22;103347.69;5006050;28;20127;-72
2022/01/23 03:29:19;;;;;;;4.05;0.20;;;;;;;5.15;51.92;103346.22;5009337;28;20665;-73
2022/01/23 03:34:17;;;;;;;;;;;;;;;5.12;52.14;103353.91;5009147;28;20034;-72
2022/01/23 03:36:43;;;;;;;3.47;0.20;;;;;;;5.17;51.82;103341.94;5003936;28;19913;-72
2022/01/23 03:39:10;;;;;;;1.92;0.20;;;;;;;5.16;51.73;103345.34;5006469;28;20034;-72
2022/01/23 03:41:42;;;;;;;7.15;0.28;;;;;;;5.12;51.72;103334.88;5005350;28;20033;-72
2022/01/23 03:44:10;;;;;;;0.60;0.20;;;;;;;5.07;52.16;103339.97;5008186;28;20047;-72
2022/01/23 03:47:12;;;;;;;3.97;0.20;;;;;;;5.03;52.16;103343.31;5006601;28;20614;-73
2022/01/23 03:49:36;;;;;;;4.68;0.30;;;;;;;4.91;52.48;103343.06;5009026;28;20041;-73
2022/01/23 03:52:34;;;;;;;3.60;0.20;;;;;;;4.96;52.40;103338.84;4991936;28;20495;-72
2022/01/23 03:55:02;;;;;;;1.73;0.10;;;;;;;4.95;52.54;103337.97;5006515;28;20030;-72
2022/01/23 03:57:30;;;;;;;1.67;0.20;;;;;;;4.96;52.35;103331.94;5022824;28;20045;-71
2022/01/23 03:59:55;;;;;;;1.88;0.20;;;;;;;4.88;52.69;103338.69;5002530;28;20033;-73
2022/01/23 04:02:21;;;;;;;7.72;0.30;;;;;;;4.88;52.35;103333.50;5013347;28;20518;-73
2022/01/23 04:04:46;;;;;;;1.67;0.17;;;;;;;4.86;52.51;103348.09;5004056;28;20545;-74
2022/01/23 04:07:21;;;;;;;3.17;0.98;;;;;;;4.86;52.40;103349.81;5009191;28;20054;-71
2022/01/23 04:09:47;;;;;;;1.90;0.40;;;;;;;4.71;52.92;103351.19;5003934;28;20514;-71
2022/01/23 04:15:03;;;;;;;4.88;0.47;;;;;;;4.69;53.02;103349.41;5001651;28;20037;-71
2022/01/23 04:34:00;;;;;;;1.23;0.43;;;;;;;4.77;53.60;103376.38;5011787;28;20521;-71
2022/01/23 05:01:03;;;;;;;4.75;0.82;;;;;;;4.93;54.29;103377.66;5025209;28;20126;-71
2022/01/23 05:06:38;;;;;;;2.75;0.77;;;;;;;4.71;54.72;103376.22;5024602;28;20075;-72
2022/01/23 05:09:23;;;;;;;4.22;0.60;;;;;;;4.98;54.38;103379.50;5008663;28;20042;-73
2022/01/23 05:12:00;;;;;;;2.50;1.00;;;;;;;4.96;54.24;103378.59;5024212;28;20030;-71
2022/01/23 05:14:30;;;;;;;;;;;;;;;4.84;54.22;103373.97;5011866;28;20465;-72
2022/01/23 05:16:57;;;;;;;7.90;0.60;;;;;;;4.47;55.90;103381.66;5023672;28;19917;-72
2022/01/23 05:19:23;;;;;;;5.38;0.57;;;;;;;4.71;54.92;103384.88;5024836;28;20107;-72
2022/01/23 05:24:18;;;;;;;7.20;0.70;;;;;;;4.93;54.51;103378.53;5024629;28;20411;-71
2022/01/23 05:26:46;;;;;;;3.53;0.38;;;;;;;4.78;54.51;103379.00;5022908;28;20033;-71
2022/01/23 05:29:13;;;;;;;0.75;0.30;;;;;;;4.57;55.45;103383.66;5006848;28;20106;-71
2022/01/23 05:31:39;;;;;;;2.35;0.30;;;;;;;4.95;54.48;103386.34;5007727;28;20037;-71
2022/01/23 05:34:05;;;;;;;3.22;0.40;;;;;;;4.71;55.03;103377.09;4992265;28;20087;-71
2022/01/23 05:36:31;;;;;;;5.88;0.88;;;;;;;4.93;54.44;103377.66;5021857;28;20030;-70
2022/01/23 05:38:58;;;;;;;2.58;0.77;;;;;;;4.85;54.21;103372.25;5009918;28;20076;-71
2022/01/23 05:41:24;;;;;;;1.50;0.75;;;;;;;4.94;54.13;103379.41;5025980;28;20453;-71
2022/01/23 05:43:50;;;;;;;3.75;0.20;;;;;;;4.43;55.68;103379.00;4989659;28;20257;-71
2022/01/23 05:46:17;;;;;;;0.68;0.10;;;;;;;4.81;54.67;103384.28;5008007;28;20498;-71
2022/01/23 05:49:10;;;;;;;3.58;0.30;;;;;;;4.41;55.52;103383.28;5023613;28;20069;-72
2022/01/23 05:51:54;;;;;;;3.10;0.30;;;;;;;4.75;54.46;103384.13;5005189;28;20090;-71
2022/01/23 05:54:39;;;;;;;1.52;0.22;;;;;;;4.58;55.17;103375.91;4990680;28;20180;-73
2022/01/23 05:57:24;;;;;;;3.70;0.32;;;;;;;4.92;54.26;103386.25;4980884;28;20634;-73
2022/01/23 06:00:06;;;;;;;1.90;0.20;;;;;;;5.02;54.05;103385.66;4996870;28;20103;-71
2022/01/23 06:02:36;;;;;;;0.73;0.17;;;;;;;5.00;53.56;103384.75;5016035;28;20566;-70
2022/01/23 06:05:03;;;;;;;2.38;0.10;;;;;;;4.87;54.22;103382.66;5009317;28;20033;-71
2022/01/23 06:07:43;;;;;;;1.88;0.20;;;;;;;4.51;55.00;103383.50;4996224;28;20037;-70
2022/01/23 06:10:19;;;;;;;3.20;0.20;;;;;;;4.78;54.44;103373.81;5004951;28;20031;-73
2022/01/23 06:12:47;;;;;;;0.77;0.20;;;;;;;4.72;54.40;103378.88;5013618;28;20045;-72
2022/01/23 06:15:13;;;;;;;4.78;0.43;;;;;;;4.89;53.70;103381.88;5018797;28;20022;-73
2022/01/23 06:17:38;;;;;;;1.33;0.32;;;;;;;4.76;54.54;103380.66;5013753;28;20473;-72
2022/01/23 06:20:22;;;;;;;3.28;0.22;;;;;;;4.80;54.00;103382.50;4988356;28;20204;-72
2022/01/23 06:23:07;;;;;;;6.40;0.20;;;;;;;4.95;54.14;103386.34;4988347;28;20101;-72
2022/01/23 06:25:35;;;;;;;3.83;0.13;;;;;;;5.08;53.47;103380.63;4986574;28;20665;-72
2022/01/23 06:28:06;;;;;;;1.50;0.10;;;;;;;5.10;53.62;103384.13;4991201;28;20065;-72
2022/01/23 06:30:33;;;;;;;2.25;0.30;;;;;;;4.93;53.74;103388.03;5002955;28;20069;-72
2022/01/23 06:33:00;;;;;;;0.98;0.10;;;;;;;5.09;53.27;103384.94;4987524;28;20050;-72
2022/01/23 06:35:26;;;;;;;7.13;0.28;;;;;;;5.10;53.30;103384.13;4976981;28;20034;-72
2022/01/23 06:37:52;;;;;;;1.95;0.40;;;;;;;5.03;53.65;103389.97;4987117;28;20321;-72
2022/01/23 06:40:17;;;;;;;4.57;0.20;;;;;;;5.00;53.69;103398.56;4987983;28;20053;-72
2022/01/23 06:43:12;;;;;;;0.90;0.17;;;;;;;4.91;53.81;103394.88;4984770;28;20042;-72
2022/01/23 06:46:04;;;;;;;0.57;0.25;;;;;;;4.58;54.74;103395.75;4984764;28;20042;-72
2022/01/23 06:48:30;;;;;;;1.67;0.25;;;;;;;4.79;54.35;103398.91;5000564;28;20045;-72
2022/01/23 06:50:55;;;;;;;5.00;0.38;;;;;;;4.83;53.93;103392.06;5021350;28;20077;-72
2022/01/23 06:53:21;;;;;;;2.17;0.63;;;;;;;4.83;53.89;103394.66;4993478;28;20510;-72
2022/01/23 06:55:46;;;;;;;1.92;0.28;;;;;;;4.93;53.78;103404.44;5002620;28;20068;-72
2022/01/23 06:58:12;;;;;;;5.65;0.70;;;;;;;4.79;54.05;103403.22;4988671;28;20081;-72
2022/01/23 07:00:37;;;;;;;3.13;0.10;;;;;;;4.49;54.88;103401.59;5005948;28;20509;-72
2022/01/23 07:03:21;;;;;;;3.20;0.20;;;;;;;4.84;53.88;103405.06;4994472;28;20097;-72
2022/01/23 07:06:07;;;;;;;2.95;0.35;;;;;;;4.82;53.76;103411.06;4985367;28;20162;-73
2022/01/23 07:08:46;;;;;;;5.50;0.30;;;;;;;4.87;53.90;103416.34;5017144;28;20042;-72
2022/01/23 07:11:31;;;;;;;2.58;0.50;;;;;;;4.78;54.21;103417.88;4985990;28;20041;-72
2022/01/23 07:14:06;;;;;;;2.80;0.35;;;;;;;4.97;53.91;103415.78;4988814;28;20453;-72
2022/01/23 07:16:51;;;;;;;1.95;0.20;;;;;;;5.06;53.72;103423.78;4986543;28;20049;-72
2022/01/23 07:19:40;;;;;;;1.45;0.20;;;;;;;4.93;53.69;103426.91;4987283;28;20038;-72
2022/01/23 07:22:05;;;;;;;3.45;0.50;;;;;;;4.89;53.75;103427.66;4994433;28;20451;-73
2022/01/23 07:24:33;;;;;;;3.92;0.57;;;;;;;5.02;53.31;103429.72;5001719;28;20039;-71
2022/01/23 07:27:01;;;;;;;0.60;0.13;;;;;;;5.07;52.96;103438.47;4985648;28;20038;-72
2022/01/23 07:29:26;;;;;;;3.83;0.55;;;;;;;4.91;53.63;103437.22;4987539;28;20322;-72
2022/01/23 07:32:00;;;;;;;2.65;0.43;;;;;;;4.94;53.60;103439.00;5000708;28;20494;-72
2022/01/23 07:34:26;;;;;;;2.90;0.40;;;;;;;4.99;53.64;103442.63;4978153;28;20034;-72
2022/01/23 07:36:52;;;;;;;3.30;0.43;;;;;;;4.70;54.15;103445.31;4986994;28;20137;-72
2022/01/23 07:39:33;;;;;;;5.68;0.30;;;;;;;4.95;53.39;103448.56;4979248;28;20026;-72
2022/01/23 07:42:04;;;;;;;2.80;0.50;;;;;;;4.99;53.42;103440.91;4974502;28;20054;-71
2022/01/23 07:44:55;;;;;;;1.60;0.52;;;;;;;4.95;53.43;103451.16;4986908;28;20249;-72
2022/01/23 07:47:39;;;;;;;3.28;0.73;;;;;;;4.93;53.77;103455.41;4986818;28;20096;-72
2022/01/23 07:50:33;;;;;;;6.43;1.10;;;;;;;5.10;52.96;103454.13;4987456;28;20610;-71
2022/01/23 07:53:34;;;;;;;4.53;1.08;;;;;;;4.88;53.35;103462.19;4973426;28;20283;-72
2022/01/23 07:56:05;;;;;;;5.85;0.88;;;;;;;4.90;53.57;103466.59;4992725;28;20042;-71
2022/01/23 07:58:37;;;;;;;1.27;0.73;;;;;;;5.05;53.71;103471.25;5006402;28;20049;-73
2022/01/23 08:01:08;;;;;;;2.45;1.40;;;;;;;5.16;53.06;103480.16;5026427;28;20478;-72
2022/01/23 08:03:52;;;;;;;4.05;1.20;;;;;;;4.94;53.70;103480.47;5010353;28;20528;-72
2022/01/23 08:06:18;;;;;;;5.60;1.63;;;;;;;5.10;53.46;103482.63;5002027;28;20034;-72
2022/01/23 08:08:48;;;;;;;3.95;1.27;;;;;;;5.24;52.87;103483.84;5008479;28;20502;-72
2022/01/23 08:11:16;;;;;;;6.43;0.90;;;;;;;5.15;52.71;103491.41;5011525;28;20469;-72
2022/01/23 08:13:42;;;;;;;7.50;1.10;;;;;;;5.03;53.36;103493.66;4991265;28;20133;-72
2022/01/23 08:16:07;;;;;;;3.20;0.80;;;;;;;5.32;52.49;103496.97;4991508;28;20117;-73
2022/01/23 08:18:32;;;;;;;1.30;0.50;;;;;;;5.24;52.90;103486.44;4988199;28;20043;-73
2022/01/23 08:20:58;;;;;;;3.65;1.10;;;;;;;4.73;54.01;103486.84;4992265;28;20041;-72
2022/01/23 08:23:23;;;;;;;4.40;0.57;;;;;;;5.25;52.82;103485.56;4992718;28;20086;-72
2022/01/23 08:25:49;;;;;;;6.68;0.70;;;;;;;5.31;52.67;103486.59;4988745;28;20111;-72
2022/01/23 08:28:15;;;;;;;4.75;0.50;;;;;;;5.36;52.78;103483.25;5000977;28;20094;-71
2022/01/23 08:30:41;;;;;;;3.25;0.30;;;;;;;5.53;52.06;103491.44;5008909;28;20037;-72
2022/01/23 08:33:06;;;;;;;5.25;0.77;;;;;;;5.55;52.00;103494.94;5011587;28;20467;-72
2022/01/23 08:35:32;;;;;;;1.95;0.32;;;;;;;5.64;51.99;103495.16;5017692;28;20491;-72
2022/01/23 08:37:57;;;;;;;2.83;0.25;;;;;;;5.08;53.12;103501.56;5008776;28;20160;-72
2022/01/23 08:40:35;;;;;;;5.50;0.30;;;;;;;5.32;52.10;103501.28;5025446;28;20490;-73
2022/01/23 08:43:01;;;;;;;1.50;0.35;;;;;;;5.63;52.05;103508.94;5008160;28;20030;-72
2022/01/23 08:45:26;;;;;;;3.72;0.55;;;;;;;5.70;51.67;103503.91;5023001;28;20418;-72
2022/01/23 08:47:52;;;;;;;4.65;1.20;;;;;;;5.61;51.81;103505.47;5007334;28;20457;-72
2022/01/23 08:50:18;;;;;;;5.65;0.80;;;;;;;5.65;51.31;103511.59;5010220;28;20043;-73
2022/01/23 08:52:44;;;;;;;2.80;0.52;;;;;;;5.69;51.38;103510.81;5006355;28;20033;-72
2022/01/23 08:55:10;;;;;;;5.25;1.13;;;;;;;5.70;51.83;103511.69;5009940;28;20061;-72
2022/01/23 08:57:36;;;;;;;5.63;0.50;;;;;;;5.86;50.96;103506.03;5012506;28;20052;-72
2022/01/23 09:00:04;;;;;;;5.90;1.23;;;;;;;5.88;50.83;103494.81;5010828;28;20041;-73
2022/01/23 09:02:30;;;;;;;7.93;1.48;;;;;;;6.17;50.91;103498.84;5001400;28;20544;-73
2022/01/23 09:04:56;;;;;;;4.72;0.45;;;;;;;6.27;50.48;103498.22;5004352;28;20062;-73
2022/01/23 09:07:22;;;;;;;9.85;0.90;;;;;;;6.34;49.84;103507.91;4988054;28;20108;-72
2022/01/23 09:09:48;;;;;;;3.30;0.73;;;;;;;6.42;49.71;103503.75;4985557;28;20041;-72
2022/01/23 09:14:57;;;;;;;4.18;0.98;;;;;;;6.55;49.38;103509.16;5000514;28;20376;-72
2022/01/23 09:17:23;;;;;;;2.17;0.57;;;;;;;6.50;49.69;103504.75;4985051;28;20038;-74
2022/01/23 09:19:49;;;;;;;7.40;1.75;;;;;;;6.42;49.19;103514.13;5001077;28;20030;-73
2022/01/23 09:22:15;;;;;;;1.58;0.52;;;;;;;6.62;48.98;103513.63;4986934;28;20049;-72
2022/01/23 09:24:41;;;;;;;3.30;0.60;;;;;;;6.61;49.33;103511.88;5001990;28;20030;-72
2022/01/23 09:27:12;;;;;;;7.47;0.77;;;;;;;6.68;49.18;103521.53;4992940;28;20058;-72
2022/01/23 09:29:41;;;;;;;9.57;2.15;;;;;;;6.71;49.20;103519.00;5013005;28;20045;-72
2022/01/23 09:32:14;;;;;;;8.10;0.80;;;;;;;6.63;49.11;103512.78;5002067;28;20092;-72
2022/01/23 09:34:41;;;;;;;14.75;0.88;;;;;;;6.52;49.39;103515.19;5005962;28;20465;-72
2022/01/23 09:37:09;;;;;;;4.15;0.45;;;;;;;6.46;48.72;103520.25;5016195;28;20053;-72
2022/01/23 09:39:36;;;;;;;3.42;0.60;;;;;;;6.54;49.50;103517.81;4987814;28;20089;-72
2022/01/23 09:42:05;;;;;;;2.75;0.22;;;;;;;6.40;49.19;103518.44;4985445;28;20391;-72
2022/01/23 09:44:39;;;;;;;1.45;0.20;;;;;;;6.36;49.35;103527.00;5001751;28;20038;-71
2022/01/23 09:47:06;;;;;;;5.75;0.40;;;;;;;6.37;49.28;103528.72;4994396;28;20042;-72
2022/01/23 09:49:31;;;;;;;4.88;0.50;;;;;;;6.21;49.62;103527.50;4987426;28;20033;-72
2022/01/23 09:52:01;;;;;;;0.90;0.20;;;;;;;6.34;49.05;103539.06;4986540;28;20083;-72
2022/01/23 09:54:30;;;;;;;2.85;0.28;;;;;;;6.46;48.73;103534.13;4986485;28;20049;-72
2022/01/23 09:57:00;;;;;;;6.07;0.88;;;;;;;6.66;48.31;103536.22;5001978;28;20030;-72
2022/01/23 09:59:26;;;;;;;4.63;1.33;;;;;;;6.72;48.61;103540.69;4988411;28;20031;-72
2022/01/23 10:01:55;;;;;;;9.32;1.65;;;;;;;6.73;48.40;103537.22;4998688;28;20034;-71
2022/01/23 10:04:22;;;;;;;6.60;1.70;;;;;;;6.60;48.59;103543.94;4987976;28;20092;-73
2022/01/23 10:06:47;;;;;;;9.80;0.70;;;;;;;6.69;47.75;103541.50;4985749;28;20677;-72
2022/01/23 10:09:14;;;;;;;2.70;0.50;;;;;;;6.37;49.05;103540.84;4998408;28;20121;-72
2022/01/23 10:11:43;;;;;;;2.15;0.30;;;;;;;6.19;49.33;103543.91;4975242;28;20022;-72
2022/01/23 10:14:09;;;;;;;2.35;0.45;;;;;;;6.65;48.17;103552.69;4991306;28;20136;-72
2022/01/23 10:16:34;;;;;;;2.75;0.40;;;;;;;6.66;48.33;103544.03;4995032;28;20483;-72
2022/01/23 10:19:01;;;;;;;1.60;0.15;;;;;;;6.91;47.86;103545.38;4996252;28;20490;-73
2022/01/23 10:21:29;;;;;;;0.80;0.20;;;;;;;7.00;47.12;103540.34;4993172;28;20026;-72
2022/01/23 10:23:55;;;;;;;1.33;0.57;;;;;;;6.91;47.26;103541.03;4989235;28;20042;-72
2022/01/23 10:26:39;;;;;;;1.60;0.30;;;;;;;6.85;47.61;103537.47;4995159;28;20093;-72
2022/01/23 10:29:13;;;;;;;0.98;0.10;;;;;;;6.92;47.26;103541.91;4992930;28;20443;-72
2022/01/23 10:32:04;;;;;;;1.00;0.20;;;;;;;6.88;47.69;103533.16;4992657;28;20026;-73
2022/01/23 10:35:02;;;;;;;2.90;0.30;;;;;;;7.12;46.99;103539.66;4992438;28;20044;-72
2022/01/23 10:37:31;;;;;;;3.47;0.10;;;;;;;6.76;48.15;103534.69;4991352;28;20549;-72
2022/01/23 10:39:58;;;;;;;0.57;0.20;;;;;;;6.78;47.69;103536.47;4992874;28;20120;-73
2022/01/23 10:47:58;;;;;;;1.60;0.22;;;;;;;7.04;46.88;103536.06;5000193;28;20592;-72
2022/01/23 10:50:25;;;;;;;2.17;1.17;;;;;;;7.35;46.83;103528.75;5004695;28;20484;-73
2022/01/23 10:52:51;;;;;;;5.07;0.73;;;;;;;7.10;46.96;103533.56;5002850;28;20133;-73
2022/01/23 10:55:20;;;;;;;2.50;0.40;;;;;;;7.07;46.90;103533.53;5005001;28;20516;-73
2022/01/23 10:57:48;;;;;;;0.52;0.20;;;;;;;6.89;46.89;103532.34;5018827;28;20041;-73
2022/01/23 11:00:31;;;;;;;0.75;0.10;;;;;;;7.08;46.67;103543.94;5006003;28;20120;-75
2022/01/23 11:02:59;;;;;;;2.22;0.10;;;;;;;7.13;46.36;103533.59;5004773;28;20586;-73
2022/01/23 11:05:39;;;;;;;1.02;0.20;;;;;;;7.29;46.01;103533.03;5021147;28;20042;-74
2022/01/23 11:08:20;;;;;;;3.50;0.13;;;;;;;7.21;45.96;103534.63;5004645;28;20045;-73
2022/01/23 11:10:57;;;;;;;1.33;0.28;;;;;;;7.39;45.93;103522.75;5005018;28;20037;-73
2022/01/23 11:19:15;;;;;;;0.47;0.10;;;;;;;7.19;46.19;103531.09;5018277;28;20494;-73
2022/01/23 11:21:42;;;;;;;2.35;0.13;;;;;;;7.21;45.27;103539.81;5001069;28;20576;-74
2022/01/23 11:24:07;;;;;;;1.80;0.10;;;;;;;7.29;45.55;103538.22;5009171;28;20033;-73
2022/01/23 11:26:33;;;;;;;1.65;0.08;;;;;;;7.07;45.66;103537.00;5005277;28;20073;-73
2022/01/23 11:29:08;;;;;;;1.17;0.20;;;;;;;6.79;46.08;103532.16;5004742;28;20103;-73
2022/01/23 11:31:34;;;;;;;0.88;0.10;;;;;;;7.14;45.63;103531.91;5001837;28;20375;-72
2022/01/23 11:34:01;;;;;;;0.43;0.10;;;;;;;6.80;45.77;103516.59;5002256;28;20046;-72
2022/01/23 11:36:27;;;;;;;2.55;0.20;;;;;;;7.15;45.11;103523.22;5004060;28;20034;-73
2022/01/23 11:38:59;;;;;;;0.30;0.00;;;;;;;7.53;43.78;103519.53;5003740;28;20469;-73
2022/01/23 11:55:33;;;;;;;0.50;0.10;;;;;;;8.30;42.04;103506.69;5006802;28;20030;-73
2022/01/23 11:58:00;;;;;;;2.83;0.22;;;;;;;8.55;42.53;103506.09;5004551;28;20058;-73
2022/01/23 12:00:32;;;;;;;0.55;0.10;;;;;;;8.35;42.90;103512.81;5003564;28;20069;-73
2022/01/23 12:03:17;;;;;;;;;;;;;;;8.31;43.24;103505.81;5006738;28;20609;-73
2022/01/23 12:05:45;;;;;;;1.40;0.55;;;;;;;8.43;43.10;103507.72;5021913;28;19925;-73
2022/01/23 12:08:19;;;;;;;2.58;0.50;;;;;;;8.15;42.98;103508.22;5007013;28;20041;-74
2022/01/23 12:11:24;;;;;;;1.77;0.10;;;;;;;8.36;42.83;103505.03;5005128;28;20134;-73
2022/01/23 12:16:56;;;;;;;0.85;0.43;;;;;;;8.30;43.04;103511.91;5021256;28;20513;-74
2022/01/23 12:19:24;;;;;;;1.27;0.45;;;;;;;8.37;42.63;103505.88;5006893;28;20084;-73
2022/01/23 12:21:53;;;;;;;1.80;0.38;;;;;;;8.60;43.20;103510.47;5016368;28;20037;-73
2022/01/23 12:24:20;;;;;;;2.72;0.30;;;;;;;8.42;43.20;103506.81;4990753;28;20073;-74
2022/01/23 12:26:47;;;;;;;0.50;0.20;;;;;;;8.28;42.85;103508.41;5005230;28;20100;-74
2022/01/23 12:29:12;;;;;;;2.58;0.55;;;;;;;7.84;43.98;103506.09;5009100;28;20176;-73
2022/01/23 12:31:38;;;;;;;1.08;0.20;;;;;;;7.36;44.48;103507.13;5011035;28;20128;-74
2022/01/23 12:34:04;;;;;;;3.63;0.88;;;;;;;7.30;44.80;103498.34;5007463;28;20048;-75
2022/01/23 12:36:32;;;;;;;2.05;0.45;;;;;;;7.39;45.10;103497.59;5012455;28;20021;-74
2022/01/23 12:39:07;;;;;;;2.05;0.30;;;;;;;7.49;44.71;103501.25;5005336;28;20097;-74
2022/01/23 12:41:35;;;;;;;1.05;0.40;;;;;;;7.50;44.27;103501.25;5004095;28;20034;-73
2022/01/23 12:44:23;;;;;;;3.03;0.63;;;;;;;7.21;45.05;103502.53;5005256;28;20030;-74
2022/01/23 12:46:50;;;;;;;0.90;0.60;;;;;;;7.40;44.82;103503.69;5004878;28;20045;-73
2022/01/23 12:49:30;;;;;;;1.48;0.40;;;;;;;7.46;44.18;103493.38;5011025;28;20183;-74
2022/01/23 12:52:05;;;;;;;1.10;0.30;;;;;;;7.07;45.53;103499.72;5008165;28;20058;-73
2022/01/23 12:54:32;;;;;;;2.78;0.32;;;;;;;7.01;45.79;103494.41;5011696;28;20030;-74
2022/01/23 12:57:09;;;;;;;1.35;0.20;;;;;;;6.70;46.08;103499.06;5009200;28;20053;-74
2022/01/23 12:59:36;;;;;;;2.05;0.22;;;;;;;7.01;45.62;103492.66;5010329;28;20021;-74
2022/01/23 13:02:10;;;;;;;1.05;0.60;;;;;;;7.00;44.83;103500.44;5006294;28;20099;-73
2022/01/23 13:04:42;;;;;;;1.13;0.17;;;;;;;6.80;44.31;103495.78;5016333;28;20104;-75
2022/01/23 13:07:19;;;;;;;0.52;0.10;;;;;;;6.93;44.00;103496.84;5014483;28;20049;-74
2022/01/23 13:12:29;;;;;;;0.13;0.10;;;;;;;7.03;43.83;103503.09;5003842;28;20048;-74
2022/01/23 13:31:18;;;;;;;0.50;0.40;;;;;;;6.70;44.02;103493.84;5015015;28;20120;-74
2022/01/23 13:33:43;;;;;;;0.55;0.20;;;;;;;6.15;45.34;103497.94;4996105;28;20486;-74
2022/01/23 13:36:10;;;;;;;0.40;0.10;;;;;;;6.05;45.43;103502.94;4996801;28;20026;-73
2022/01/23 13:38:36;;;;;;;0.43;0.10;;;;;;;6.18;45.32;103500.63;4994428;28;20561;-74
2022/01/23 13:41:13;;;;;;;3.10;0.30;;;;;;;5.65;46.84;103502.06;5000530;28;20399;-74
2022/01/23 13:52:26;;;;;;;0.40;0.00;;;;;;;5.88;46.12;103504.31;5004977;28;20045;-74
2022/01/23 13:58:05;;;;;;;1.70;0.38;;;;;;;5.82;46.73;103502.47;5004532;28;20403;-74
2022/01/23 14:00:31;;;;;;;0.95;0.13;;;;;;;5.84;46.24;103502.50;5007011;28;20402;-73
2022/01/23 14:02:56;;;;;;;0.98;0.30;;;;;;;6.05;45.90;103500.34;5007910;28;20045;-73
2022/01/23 14:05:29;;;;;;;1.50;0.20;;;;;;;5.94;46.17;103496.66;5022073;28;20411;-73
2022/01/23 14:07:58;;;;;;;0.88;0.10;;;;;;;5.74;46.42;103503.13;5003852;28;20034;-73
2022/01/23 14:10:37;;;;;;;0.00;0.00;;;;;;;5.45;46.76;103504.22;5003981;28;20046;-73
2022/01/23 14:13:10;;;;;;;0.28;0.00;;;;;;;5.22;47.34;103506.25;5004207;28;20137;-73
2022/01/23 14:15:43;;;;;;;0.20;0.10;;;;;;;5.98;46.16;103500.22;4989720;28;20482;-74
2022/01/23 14:18:11;;;;;;;0.20;0.10;;;;;;;5.41;47.36;103501.50;5004164;28;20128;-74
2022/01/23 14:20:42;;;;;;;0.22;0.20;;;;;;;5.53;47.23;103501.81;5007923;28;20029;-73
2022/01/23 14:23:10;;;;;;;0.82;0.10;;;;;;;5.72;46.78;103504.81;5008284;28;20060;-74
2022/01/23 14:25:43;;;;;;;0.30;0.10;;;;;;;5.58;46.99;103497.59;5004496;28;20137;-73
2022/01/23 14:28:13;;;;;;;0.17;0.05;;;;;;;5.61;46.31;103496.78;4995055;28;20140;-73
2022/01/23 14:30:55;;;;;;;0.50;0.10;;;;;;;5.65;46.94;103502.06;5020759;28;20040;-73
2022/01/23 14:33:28;;;;;;;1.48;0.50;;;;;;;5.67;46.90;103505.59;5005485;28;20514;-74
2022/01/23 14:35:54;;;;;;;1.10;0.40;;;;;;;5.71;46.74;103505.69;5004797;28;20072;-74
2022/01/23 14:38:27;;;;;;;0.90;0.28;;;;;;;5.90;46.64;103502.63;5005371;28;20033;-74
2022/01/23 14:40:56;;;;;;;1.58;0.20;;;;;;;5.58;46.84;103507.97;4991610;28;20034;-74
2022/01/23 14:43:22;;;;;;;1.45;0.20;;;;;;;5.34;47.27;103515.19;5002121;28;20053;-74
2022/01/23 14:45:50;;;;;;;1.40;0.30;;;;;;;5.46;47.29;103518.09;5003136;28;20029;-74
2022/01/23 14:48:17;;;;;;;1.55;0.20;;;;;;;5.25;47.49;103524.47;5011946;28;20046;-74
2022/01/23 14:50:46;;;;;;;1.23;0.40;;;;;;;5.51;47.16;103523.38;5020430;28;20026;-74
2022/01/23 14:53:18;;;;;;;0.75;0.52;;;;;;;5.75;46.98;103523.03;5004451;28;20051;-74
2022/01/23 14:55:50;;;;;;;0.40;0.10;;;;;;;5.22;48.12;103527.00;5008131;28;20029;-74
2022/01/23 14:58:19;;;;;;;1.38;0.32;;;;;;;4.68;49.27;103537.66;5005118;28;20410;-75
2022/01/23 15:00:45;;;;;;;2.05;0.20;;;;;;;4.99;48.54;103529.03;5000202;28;20084;-75
2022/01/23 15:03:11;;;;;;;0.28;0.10;;;;;;;5.31;48.10;103525.50;4995077;28;20514;-75
2022/01/23 15:05:39;;;;;;;0.50;0.10;;;;;;;5.06;48.19;103527.47;5004596;28;20032;-74
2022/01/23 15:08:07;;;;;;;2.67;0.20;;;;;;;5.20;47.85;103528.69;5004013;28;20029;-73
2022/01/23 15:10:33;;;;;;;0.85;0.40;;;;;;;5.03;49.02;103524.78;5003643;28;20068;-75
2022/01/23 15:12:58;;;;;;;0.75;0.30;;;;;;;5.53;47.69;103527.75;5004373;28;20050;-75
2022/01/23 15:15:25;;;;;;;0.93;0.30;;;;;;;5.76;47.49;103525.69;5003989;28;20121;-75
2022/01/23 15:17:50;;;;;;;1.25;0.20;;;;;;;5.57;47.26;103524.41;5002787;28;20117;-75